Walling, Tennessee
Current Conditions -  °F | °C
As of 8:55 PM on Sunday 23 Nov 2014 (Local Time) from KRNC Reporting Station
Overcast Overcast  
Wind Chill: 61°   Ceiling: 3600
Heat Index: 61°   Visibility: 9mi
Dew Point: 61°   Wind: 10mph
Humidity: 100%   Direction: 200°SSW
Pressure: 29.52"   Gusts: NA
Location:  35.81°N, 85.6°W
Report Text: KRNC 240255Z AUTO 20009KT 9SM SCT027 OVC036 16/16 A2952 RMK
Loading
Personal Weather Stations






























Interactive Weather Map New forecast layout! Learn more

10-Day Weather Forecast

Advertisements
Track Severe Weather on mobile